createdAt,value
2017-05-16T00:00:48.355Z,3.02
2017-05-16T00:03:15.141Z,2.80
2017-05-16T00:05:41.936Z,2.48
2017-05-16T00:08:08.724Z,3.18
2017-05-16T00:10:35.569Z,2.58
2017-05-16T00:13:02.362Z,4.26
2017-05-16T00:15:29.150Z,3.02
2017-05-16T00:17:55.948Z,2.70
2017-05-16T00:20:22.734Z,3.28
2017-05-16T00:22:49.524Z,2.42
2017-05-16T00:25:16.369Z,2.82
2017-05-16T00:27:43.153Z,2.52
2017-05-16T00:30:09.953Z,2.88
2017-05-16T00:32:36.739Z,2.56
2017-05-16T00:35:03.550Z,2.44
2017-05-16T00:37:30.341Z,3.00
2017-05-16T00:39:57.180Z,2.52
2017-05-16T00:42:23.969Z,2.32
2017-05-16T00:44:50.747Z,2.16
2017-05-16T00:47:17.528Z,2.30
2017-05-16T00:49:44.309Z,2.50
2017-05-16T00:52:11.103Z,2.04
2017-05-16T00:54:37.936Z,1.88
2017-05-16T00:57:04.770Z,1.88
2017-05-16T00:59:31.565Z,2.72
2017-05-16T01:01:58.347Z,2.14
2017-05-16T01:04:25.134Z,2.30
2017-05-16T01:06:51.936Z,2.24
2017-05-16T01:09:18.731Z,1.74
2017-05-16T01:11:45.517Z,2.32
2017-05-16T01:14:12.310Z,2.22
2017-05-16T01:16:39.155Z,1.88
2017-05-16T01:19:05.967Z,2.06
2017-05-16T01:21:32.773Z,2.48
2017-05-16T01:23:59.562Z,2.02
2017-05-16T01:26:26.346Z,2.32
2017-05-16T01:28:53.132Z,2.52
2017-05-16T01:31:19.971Z,2.32
2017-05-16T01:33:46.755Z,2.14
2017-05-16T01:36:13.536Z,2.34
2017-05-16T01:38:40.353Z,2.20
2017-05-16T01:41:07.145Z,2.00
2017-05-16T01:43:33.933Z,3.00
2017-05-16T01:46:00.740Z,2.60
2017-05-16T01:48:27.520Z,3.48
2017-05-16T01:50:54.336Z,2.40
2017-05-16T01:53:21.172Z,2.52
2017-05-16T01:55:47.963Z,2.56
2017-05-16T01:58:14.748Z,3.20
2017-05-16T02:00:41.540Z,2.80
2017-05-16T02:03:08.332Z,2.74
2017-05-16T02:05:35.123Z,2.68
2017-05-16T02:08:01.966Z,2.78
2017-05-16T02:10:28.747Z,2.80
2017-05-16T02:12:55.542Z,3.00
2017-05-16T02:15:22.326Z,3.12
2017-05-16T02:17:49.109Z,3.16
2017-05-16T02:20:15.927Z,2.88
2017-05-16T02:22:43.205Z,2.50
2017-05-16T02:25:09.996Z,3.42
2017-05-16T02:27:36.784Z,2.88
2017-05-16T02:30:03.636Z,2.98
2017-05-16T02:32:30.424Z,1.80
2017-05-16T02:34:57.267Z,2.78
2017-05-16T02:37:24.076Z,2.56
2017-05-16T02:39:50.862Z,3.30
2017-05-16T02:42:17.651Z,2.92
2017-05-16T02:44:44.442Z,2.88
2017-05-16T02:47:11.228Z,3.06
2017-05-16T02:49:38.031Z,2.68
2017-05-16T02:52:04.871Z,2.64
2017-05-16T02:54:31.676Z,2.20
2017-05-16T02:56:59.408Z,2.48
2017-05-16T02:59:26.195Z,2.32
2017-05-16T03:01:52.982Z,2.82
2017-05-16T03:04:19.762Z,3.24
2017-05-16T03:06:46.603Z,3.36
2017-05-16T03:09:13.399Z,3.06
2017-05-16T03:11:40.188Z,2.10
2017-05-16T03:14:06.981Z,2.00
2017-05-16T03:16:33.771Z,2.80
2017-05-16T03:19:00.561Z,2.68
2017-05-16T03:21:27.405Z,2.88
2017-05-16T03:23:54.216Z,2.10
2017-05-16T03:26:21.000Z,2.68
2017-05-16T03:28:47.850Z,2.70
2017-05-16T03:31:14.634Z,2.56
2017-05-16T03:33:41.419Z,2.48
2017-05-16T03:36:08.201Z,2.70
2017-05-16T03:38:34.998Z,2.22
2017-05-16T03:41:01.784Z,2.38
2017-05-16T03:43:28.575Z,2.70
2017-05-16T03:45:55.390Z,2.42
2017-05-16T03:48:22.179Z,2.40
2017-05-16T03:50:49.007Z,2.90
2017-05-16T03:53:15.805Z,2.72
2017-05-16T03:55:42.595Z,2.98
2017-05-16T03:58:09.388Z,2.96
2017-05-16T04:00:36.174Z,2.68
2017-05-16T04:03:02.967Z,2.80
2017-05-16T04:05:29.757Z,2.32
2017-05-16T04:07:56.547Z,2.94
2017-05-16T04:10:23.336Z,3.28
2017-05-16T04:12:50.134Z,3.02
2017-05-16T04:15:16.923Z,2.52
2017-05-16T04:17:43.715Z,2.22
2017-05-16T04:20:10.507Z,2.76
2017-05-16T04:22:37.295Z,3.22
2017-05-16T04:25:04.087Z,2.92
2017-05-16T04:27:30.982Z,2.28
2017-05-16T04:29:57.755Z,3.32
2017-05-16T04:32:24.530Z,2.62
2017-05-16T04:34:51.319Z,3.20
2017-05-16T04:37:18.112Z,2.74
2017-05-16T04:39:44.895Z,2.92
2017-05-16T04:42:11.751Z,3.08
2017-05-16T04:44:38.540Z,2.80
2017-05-16T04:47:05.330Z,2.14
2017-05-16T04:49:32.137Z,3.20
2017-05-16T04:51:58.927Z,2.86
2017-05-16T04:54:25.727Z,3.10
2017-05-16T04:56:52.559Z,2.72
2017-05-16T04:59:19.357Z,2.82
2017-05-16T05:01:46.140Z,3.10
2017-05-16T05:04:12.944Z,2.62
2017-05-16T05:06:39.756Z,2.66
2017-05-16T05:09:06.543Z,2.78
2017-05-16T05:11:33.355Z,3.06
2017-05-16T05:14:00.181Z,2.96
2017-05-16T05:16:26.977Z,3.10
2017-05-16T05:18:53.760Z,2.64
2017-05-16T05:21:20.550Z,2.76
2017-05-16T05:23:47.344Z,2.50
2017-05-16T05:26:14.186Z,2.40
2017-05-16T05:28:40.973Z,3.06
2017-05-16T05:31:07.762Z,1.90
2017-05-16T05:33:34.554Z,2.18
2017-05-16T05:36:01.339Z,3.14
2017-05-16T05:38:28.137Z,2.70
2017-05-16T05:40:54.919Z,2.52
2017-05-16T05:43:21.709Z,2.90
2017-05-16T05:45:48.499Z,2.10
2017-05-16T05:48:15.288Z,2.10
2017-05-16T05:50:42.082Z,2.30
2017-05-16T05:53:08.863Z,2.20
2017-05-16T05:55:35.652Z,2.22
2017-05-16T05:58:02.439Z,2.02
2017-05-16T06:00:29.263Z,2.38
2017-05-16T06:02:56.057Z,1.96
2017-05-16T06:05:22.840Z,2.00
2017-05-16T06:07:49.653Z,1.70
2017-05-16T06:10:16.446Z,1.76
2017-05-16T06:12:43.233Z,1.72
2017-05-16T06:15:10.024Z,1.80
2017-05-16T06:17:36.884Z,1.78
2017-05-16T06:20:03.682Z,2.28
2017-05-16T06:22:30.477Z,1.60
2017-05-16T06:24:57.267Z,1.50
2017-05-16T06:27:24.072Z,2.02
2017-05-16T06:29:50.860Z,1.88
2017-05-16T06:32:17.648Z,1.66
2017-05-16T06:34:44.448Z,2.24
2017-05-16T06:37:11.231Z,1.94
2017-05-16T06:39:38.075Z,2.28
2017-05-16T06:42:04.864Z,2.18
2017-05-16T06:44:31.648Z,1.80
2017-05-16T06:46:58.439Z,2.60
2017-05-16T06:49:25.238Z,1.74
2017-05-16T06:51:52.033Z,2.26
2017-05-16T06:54:18.875Z,1.98
2017-05-16T06:56:45.658Z,1.68
2017-05-16T06:59:12.456Z,1.70
2017-05-16T07:01:39.270Z,2.54
2017-05-16T07:04:06.059Z,1.78
2017-05-16T07:06:32.848Z,1.78
2017-05-16T07:08:59.684Z,1.50
2017-05-16T07:11:26.478Z,1.94
2017-05-16T07:13:53.268Z,2.30
2017-05-16T07:16:20.072Z,1.50
2017-05-16T07:18:46.820Z,1.90
2017-05-16T07:21:13.562Z,1.82
2017-05-16T07:23:40.377Z,2.00
2017-05-16T07:26:07.133Z,1.60
2017-05-16T07:28:33.923Z,2.24
2017-05-16T07:31:00.729Z,1.72
2017-05-16T07:33:27.552Z,1.80
2017-05-16T07:35:54.297Z,1.74
2017-05-16T07:38:21.047Z,1.62
2017-05-16T07:40:47.795Z,2.06
2017-05-16T07:43:14.544Z,2.62
2017-05-16T07:45:41.291Z,1.68
2017-05-16T07:48:08.051Z,1.82
2017-05-16T07:50:34.801Z,1.72
2017-05-16T07:53:01.541Z,1.90
2017-05-16T07:55:28.313Z,1.90
2017-05-16T07:57:55.054Z,1.90
2017-05-16T08:00:21.825Z,1.72
2017-05-16T08:02:48.567Z,1.72
2017-05-16T08:05:15.314Z,1.70
2017-05-16T08:07:42.067Z,1.68
2017-05-16T08:10:08.810Z,2.00
2017-05-16T08:12:35.561Z,1.80
2017-05-16T08:15:02.311Z,2.02
2017-05-16T08:17:29.045Z,1.60
2017-05-16T08:19:55.790Z,1.88
2017-05-16T08:22:22.536Z,1.90
2017-05-16T08:24:49.277Z,1.52
2017-05-16T08:27:16.022Z,1.60
2017-05-16T08:29:42.760Z,1.70
2017-05-16T08:32:09.512Z,1.32
2017-05-16T08:34:36.257Z,1.68
2017-05-16T08:37:03.050Z,1.82
2017-05-16T08:39:29.795Z,1.68
2017-05-16T08:41:56.533Z,1.72
2017-05-16T08:44:23.283Z,2.44
2017-05-16T08:46:50.039Z,1.80
2017-05-16T08:49:16.788Z,1.88
2017-05-16T08:51:43.572Z,1.82
2017-05-16T08:54:10.319Z,2.14
2017-05-16T08:56:37.071Z,1.80
2017-05-16T08:59:03.857Z,1.92
2017-05-16T09:01:30.603Z,1.98
2017-05-16T09:03:57.358Z,1.80
2017-05-16T09:06:24.156Z,1.78
2017-05-16T09:08:50.906Z,1.86
2017-05-16T09:11:17.648Z,1.54
2017-05-16T09:13:44.398Z,1.96
2017-05-16T09:16:11.137Z,2.08
2017-05-16T09:18:37.904Z,1.62
2017-05-16T09:21:04.663Z,2.10
2017-05-16T09:23:31.404Z,1.76
2017-05-16T09:25:58.148Z,2.12
2017-05-16T09:28:24.954Z,1.90
2017-05-16T09:30:51.696Z,2.10
2017-05-16T09:33:18.435Z,2.00
2017-05-16T09:35:45.211Z,1.64
2017-05-16T09:38:11.957Z,1.90
2017-05-16T09:40:38.701Z,2.20
2017-05-16T09:43:05.448Z,1.98
2017-05-16T09:45:32.250Z,1.98
2017-05-16T09:47:58.991Z,2.30
2017-05-16T09:50:25.742Z,2.24
2017-05-16T09:52:52.487Z,2.10
2017-05-16T09:55:19.253Z,2.32
2017-05-16T09:57:46.056Z,2.06
2017-05-16T10:00:12.820Z,1.58
2017-05-16T10:02:39.570Z,2.10
2017-05-16T10:05:06.323Z,1.82
2017-05-16T10:07:33.072Z,1.88
2017-05-16T10:09:59.822Z,2.06
2017-05-16T10:12:26.631Z,2.44
2017-05-16T10:14:53.379Z,1.80
2017-05-16T10:17:20.122Z,1.70
2017-05-16T10:19:46.920Z,2.24
2017-05-16T10:22:13.666Z,2.18
2017-05-16T10:24:40.420Z,1.98
2017-05-16T10:27:07.186Z,2.52
2017-05-16T10:29:33.939Z,1.96
2017-05-16T10:32:00.686Z,2.10
2017-05-16T10:34:27.438Z,2.32
2017-05-16T10:36:54.192Z,1.94
2017-05-16T10:39:20.984Z,2.00
2017-05-16T10:41:48.373Z,2.02
2017-05-16T10:44:15.153Z,2.12
2017-05-16T10:46:41.975Z,1.72
2017-05-16T10:49:08.762Z,2.00
2017-05-16T10:51:35.516Z,1.72
2017-05-16T10:54:02.277Z,2.02
2017-05-16T10:56:29.100Z,1.72
2017-05-16T10:58:55.857Z,2.12
2017-05-16T11:01:22.637Z,1.72
2017-05-16T11:03:49.515Z,2.28
2017-05-16T11:06:16.299Z,2.02
2017-05-16T11:08:46.358Z,2.56
2017-05-16T11:11:13.130Z,2.34
2017-05-16T11:13:39.890Z,1.70
2017-05-16T11:16:06.672Z,2.04
2017-05-16T11:18:33.414Z,1.80
2017-05-16T11:21:00.181Z,1.86
2017-05-16T11:23:26.945Z,2.00
2017-05-16T11:25:53.837Z,2.10
2017-05-16T11:28:22.235Z,2.40
2017-05-16T11:30:49.597Z,2.64
2017-05-16T11:33:16.492Z,2.22
2017-05-16T11:35:43.352Z,2.58
2017-05-16T11:38:10.232Z,3.44
2017-05-16T11:40:37.133Z,2.78
2017-05-16T11:43:03.980Z,2.10
2017-05-16T11:45:30.776Z,2.66
2017-05-16T11:47:57.571Z,3.00
2017-05-16T11:50:25.291Z,2.44
2017-05-16T11:52:52.114Z,2.50
2017-05-16T11:55:19.004Z,2.72
2017-05-16T11:57:45.800Z,3.32
2017-05-16T12:00:12.685Z,3.12
2017-05-16T12:02:39.504Z,2.60
2017-05-16T12:05:06.330Z,3.04
2017-05-16T12:07:33.167Z,2.66
2017-05-16T12:09:59.997Z,2.30
2017-05-16T12:12:26.847Z,2.16
2017-05-16T12:14:53.715Z,2.40
2017-05-16T12:17:20.572Z,2.32
2017-05-16T12:19:47.388Z,2.46
2017-05-16T12:22:14.211Z,3.60
2017-05-16T12:24:41.031Z,2.84
2017-05-16T12:27:07.856Z,3.08
2017-05-16T12:29:34.656Z,3.40
2017-05-16T12:32:01.456Z,2.90
2017-05-16T12:34:28.239Z,2.76
2017-05-16T12:36:55.036Z,3.88
2017-05-16T12:39:21.839Z,2.34
2017-05-16T12:41:48.624Z,2.38
2017-05-16T12:44:15.414Z,2.60
2017-05-16T12:46:42.210Z,2.70
2017-05-16T12:49:09.038Z,2.24
2017-05-16T12:51:35.835Z,2.32
2017-05-16T12:54:02.620Z,2.54
2017-05-16T12:56:29.413Z,2.78
2017-05-16T12:58:56.212Z,2.30
2017-05-16T13:01:23.053Z,2.40
2017-05-16T13:03:49.886Z,2.88
2017-05-16T13:06:16.678Z,2.78
2017-05-16T13:08:43.464Z,2.54
2017-05-16T13:11:10.265Z,3.18
2017-05-16T13:13:37.048Z,2.10
2017-05-16T13:16:03.827Z,2.00
2017-05-16T13:18:30.637Z,2.34
2017-05-16T13:20:57.425Z,2.30
2017-05-16T13:23:24.209Z,2.74
2017-05-16T13:25:51.001Z,2.10
2017-05-16T13:28:17.795Z,2.10
2017-05-16T13:30:44.588Z,2.56
2017-05-16T13:33:11.382Z,2.94
2017-05-16T13:35:38.166Z,2.18
2017-05-16T13:38:04.971Z,2.24
2017-05-16T13:40:31.769Z,2.78
2017-05-16T13:42:58.572Z,2.30
2017-05-16T13:45:25.365Z,2.56
2017-05-16T13:47:52.174Z,1.80
2017-05-16T13:50:18.964Z,2.08
2017-05-16T13:52:45.755Z,2.80
2017-05-16T13:55:12.548Z,2.24
2017-05-16T13:57:39.341Z,2.64
2017-05-16T14:00:06.125Z,3.02
2017-05-16T14:02:32.916Z,2.78
2017-05-16T14:04:59.710Z,2.58
2017-05-16T14:07:26.527Z,3.04
2017-05-16T14:09:53.333Z,2.84
2017-05-16T14:12:20.118Z,2.80
2017-05-16T14:14:46.960Z,2.50
2017-05-16T14:17:13.750Z,2.92
2017-05-16T14:19:40.545Z,2.82
2017-05-16T14:22:07.392Z,2.82
2017-05-16T14:24:34.177Z,2.88
2017-05-16T14:27:00.965Z,2.50
2017-05-16T14:29:27.784Z,2.58
2017-05-16T14:31:54.576Z,2.88
2017-05-16T14:34:21.375Z,2.70
2017-05-16T14:36:48.219Z,2.22
2017-05-16T14:39:15.026Z,2.76
2017-05-16T14:41:41.818Z,2.66
2017-05-16T14:44:08.665Z,2.54
2017-05-16T14:46:35.506Z,2.66
2017-05-16T14:49:02.297Z,2.66
2017-05-16T14:51:29.104Z,2.60
2017-05-16T14:53:55.890Z,2.70
2017-05-16T14:56:22.683Z,2.32
2017-05-16T14:58:49.495Z,2.30
2017-05-16T15:01:16.284Z,3.10
2017-05-16T15:03:43.073Z,2.62
2017-05-16T15:06:09.897Z,2.78
2017-05-16T15:08:36.686Z,2.66
2017-05-16T15:11:03.484Z,2.94
2017-05-16T15:13:30.299Z,2.52
2017-05-16T15:15:57.141Z,2.42
2017-05-16T15:18:23.925Z,3.12
2017-05-16T15:20:50.744Z,2.48
2017-05-16T15:23:17.529Z,3.20
2017-05-16T15:25:44.486Z,2.60
2017-05-16T15:28:11.344Z,2.82
2017-05-16T15:30:38.142Z,2.66
2017-05-16T15:33:04.996Z,3.34
2017-05-16T15:35:31.798Z,3.44
2017-05-16T15:37:58.587Z,2.52
2017-05-16T15:40:25.396Z,3.40
2017-05-16T15:42:52.197Z,2.90
2017-05-16T15:45:18.999Z,3.38
2017-05-16T15:47:45.787Z,3.20
2017-05-16T15:50:12.601Z,2.70
2017-05-16T15:52:39.442Z,2.98
2017-05-16T15:55:06.233Z,2.98
2017-05-16T15:57:33.051Z,2.90
2017-05-16T15:59:59.850Z,3.00
2017-05-16T16:02:26.667Z,3.62
2017-05-16T16:04:53.471Z,3.04
2017-05-16T16:07:20.265Z,2.78
2017-05-16T16:09:47.070Z,3.86
2017-05-16T16:12:13.885Z,3.28
2017-05-16T16:14:40.676Z,2.84
2017-05-16T16:17:07.470Z,2.56
2017-05-16T16:19:34.299Z,12.94
2017-05-16T16:22:01.085Z,4.10
2017-05-16T16:24:27.876Z,2.90
2017-05-16T16:26:54.691Z,2.78
2017-05-16T16:29:21.476Z,2.96
2017-05-16T16:31:48.263Z,3.24
2017-05-16T16:34:15.111Z,2.80
2017-05-16T16:36:41.903Z,2.50
2017-05-16T16:39:08.694Z,2.58
2017-05-16T16:41:35.448Z,3.48
2017-05-16T16:44:02.170Z,3.48
2017-05-16T16:46:28.887Z,2.82
2017-05-16T16:48:55.634Z,3.10
2017-05-16T16:51:22.361Z,3.40
2017-05-16T16:53:49.081Z,3.48
2017-05-16T16:56:15.840Z,3.24
2017-05-16T16:58:42.551Z,3.22
2017-05-16T17:01:09.265Z,3.68
2017-05-16T17:03:36.006Z,2.96
2017-05-16T17:06:02.724Z,3.20
2017-05-16T17:08:29.445Z,3.20
2017-05-16T17:10:56.185Z,3.20
2017-05-16T17:13:22.901Z,3.62
2017-05-16T17:15:49.622Z,3.88
2017-05-16T17:18:16.364Z,3.86
2017-05-16T17:20:43.077Z,4.82
2017-05-16T17:23:09.793Z,3.34
2017-05-16T17:25:36.531Z,3.10
2017-05-16T17:28:03.250Z,3.36
2017-05-16T17:30:30.052Z,3.26
2017-05-16T17:32:56.822Z,3.38
2017-05-16T17:35:23.529Z,3.26
2017-05-16T17:37:50.246Z,5.68
2017-05-16T17:40:16.982Z,5.08
2017-05-16T17:42:43.718Z,4.22
2017-05-16T17:45:10.428Z,3.70
2017-05-16T17:47:37.202Z,4.30
2017-05-16T17:50:03.931Z,4.26
2017-05-16T17:52:30.664Z,3.92
2017-05-16T17:54:57.390Z,4.44
2017-05-16T17:57:24.114Z,5.10
2017-05-16T17:59:50.830Z,4.08
2017-05-16T18:02:17.565Z,3.40
2017-05-16T18:04:44.294Z,3.90
2017-05-16T18:07:11.015Z,4.10
2017-05-16T18:09:37.763Z,3.64
2017-05-16T18:12:04.485Z,4.06
2017-05-16T18:14:31.204Z,4.02
2017-05-16T18:16:57.962Z,3.48
2017-05-16T18:19:24.674Z,4.26
2017-05-16T18:21:51.540Z,3.80
2017-05-16T18:24:18.329Z,4.30
2017-05-16T18:26:45.458Z,4.16
2017-05-16T18:29:12.413Z,3.90
2017-05-16T18:31:39.154Z,3.84
2017-05-16T18:34:07.238Z,3.80
2017-05-16T18:36:33.991Z,4.14
2017-05-16T18:39:01.903Z,4.08
2017-05-16T18:41:29.114Z,4.40
2017-05-16T18:43:55.832Z,4.44
2017-05-16T18:46:22.569Z,4.08
2017-05-16T18:48:49.283Z,4.14
2017-05-16T18:51:16.024Z,4.58
2017-05-16T18:53:42.763Z,3.92
2017-05-16T18:56:09.618Z,4.48
2017-05-16T18:58:36.363Z,4.06
2017-05-16T19:01:03.121Z,4.00
2017-05-16T19:03:29.834Z,3.98
2017-05-16T19:05:56.564Z,4.80
2017-05-16T19:08:23.340Z,4.50
2017-05-16T19:10:50.118Z,4.28
2017-05-16T19:13:16.880Z,5.12
2017-05-16T19:15:43.701Z,4.68
2017-05-16T19:18:10.503Z,4.92
2017-05-16T19:20:37.286Z,5.32
2017-05-16T19:23:04.077Z,4.56
2017-05-16T19:25:30.827Z,5.18
2017-05-16T19:27:57.559Z,4.50
2017-05-16T19:30:24.309Z,5.26
2017-05-16T19:32:51.050Z,5.18
2017-05-16T19:35:17.823Z,5.10
2017-05-16T19:37:44.631Z,5.16
2017-05-16T19:40:11.402Z,4.74
2017-05-16T19:42:38.127Z,4.22
2017-05-16T19:45:04.942Z,4.30
2017-05-16T19:47:31.718Z,4.42
2017-05-16T19:49:58.461Z,4.84
2017-05-16T19:52:25.701Z,4.30
2017-05-16T19:54:52.507Z,4.62
2017-05-16T19:57:19.246Z,4.78
2017-05-16T19:59:45.985Z,5.36
2017-05-16T20:02:12.744Z,4.48
2017-05-16T20:04:39.512Z,4.18
2017-05-16T20:07:06.340Z,5.44
2017-05-16T20:09:33.084Z,5.42
2017-05-16T20:12:00.745Z,4.94
2017-05-16T20:14:27.557Z,4.92
2017-05-16T20:16:54.287Z,4.88
2017-05-16T20:19:21.000Z,4.76
2017-05-16T20:21:47.750Z,5.50
2017-05-16T20:24:14.474Z,4.94
2017-05-16T20:26:41.197Z,4.86
2017-05-16T20:29:07.965Z,4.58
2017-05-16T20:31:34.678Z,6.14
2017-05-16T20:34:01.395Z,5.66
2017-05-16T20:36:28.130Z,5.36
2017-05-16T20:38:54.842Z,5.16
2017-05-16T20:41:21.570Z,4.60
2017-05-16T20:43:48.374Z,4.98
2017-05-16T20:46:15.098Z,5.26
2017-05-16T20:48:41.816Z,5.30
2017-05-16T20:51:08.582Z,5.22
2017-05-16T20:53:35.298Z,5.56
2017-05-16T20:56:02.005Z,5.40
2017-05-16T20:58:28.762Z,4.62
2017-05-16T21:00:56.394Z,6.18
2017-05-16T21:03:23.096Z,5.08
2017-05-16T21:05:49.836Z,6.10
2017-05-16T21:08:16.557Z,5.60
2017-05-16T21:10:43.360Z,5.20
2017-05-16T21:13:10.097Z,4.90
2017-05-16T21:15:36.797Z,5.22
2017-05-16T21:18:03.510Z,5.42
2017-05-16T21:20:30.262Z,5.38
2017-05-16T21:22:56.981Z,5.20
2017-05-16T21:25:23.706Z,5.06
2017-05-16T21:27:50.435Z,5.86
2017-05-16T21:30:17.149Z,5.30
2017-05-16T21:32:43.874Z,5.66
2017-05-16T21:35:10.614Z,5.02
2017-05-16T21:37:37.338Z,6.52
2017-05-16T21:40:04.051Z,6.06
2017-05-16T21:42:30.792Z,6.44
2017-05-16T21:44:57.509Z,6.12
2017-05-16T21:47:24.222Z,5.32
2017-05-16T21:49:50.986Z,5.02
2017-05-16T21:52:17.691Z,5.02
2017-05-16T21:54:44.404Z,5.06
2017-05-16T21:57:11.149Z,5.18
2017-05-16T21:59:37.869Z,6.36
2017-05-16T22:02:04.577Z,6.20
2017-05-16T22:04:31.343Z,5.46
2017-05-16T22:06:58.054Z,6.48
2017-05-16T22:09:24.783Z,5.94
2017-05-16T22:11:51.511Z,6.64
2017-05-16T22:14:18.236Z,5.60
2017-05-16T22:16:44.958Z,6.00
2017-05-16T22:19:11.732Z,6.88
2017-05-16T22:21:38.463Z,6.10
2017-05-16T22:24:05.184Z,6.64
2017-05-16T22:26:31.944Z,7.30
2017-05-16T22:28:58.656Z,6.22
2017-05-16T22:31:25.382Z,5.50
2017-05-16T22:33:52.114Z,6.46
2017-05-16T22:36:18.829Z,6.20
2017-05-16T22:38:45.566Z,5.80
2017-05-16T22:41:12.316Z,5.80
2017-05-16T22:43:39.030Z,6.14
2017-05-16T22:46:05.732Z,6.46
2017-05-16T22:48:32.473Z,5.86
2017-05-16T22:50:59.186Z,5.48
2017-05-16T22:53:25.898Z,6.02
2017-05-16T22:55:52.644Z,5.90
2017-05-16T22:58:19.358Z,5.26
2017-05-16T23:00:46.080Z,5.80
2017-05-16T23:03:12.813Z,5.78
2017-05-16T23:05:39.586Z,5.24
2017-05-16T23:08:06.289Z,6.18
2017-05-16T23:10:33.030Z,6.24
2017-05-16T23:12:59.741Z,5.94
2017-05-16T23:15:26.462Z,6.40
2017-05-16T23:17:53.206Z,5.52
2017-05-16T23:20:19.918Z,6.04
2017-05-16T23:22:46.635Z,6.10
2017-05-16T23:25:13.378Z,5.30
2017-05-16T23:27:40.090Z,6.34
2017-05-16T23:30:06.797Z,6.74
2017-05-16T23:32:33.562Z,6.20
2017-05-16T23:35:00.281Z,5.72
2017-05-16T23:37:27.019Z,5.90
2017-05-16T23:39:53.759Z,5.72
2017-05-16T23:42:20.476Z,5.80
2017-05-16T23:44:47.185Z,6.06
2017-05-16T23:47:13.951Z,5.52
2017-05-16T23:49:40.684Z,6.20
2017-05-16T23:52:07.414Z,5.52
2017-05-16T23:54:34.160Z,5.94
2017-05-16T23:57:00.875Z,6.00
2017-05-16T23:59:27.592Z,5.48
